createdAt,value
2022-12-22T00:00:32.061Z,24.40
2022-12-22T00:03:43.358Z,22.50
2022-12-22T00:06:35.111Z,24.20
2022-12-22T00:09:26.872Z,23.80
2022-12-22T00:12:18.831Z,25.20
2022-12-22T00:15:10.420Z,24.50
2022-12-22T00:18:02.578Z,24.90
2022-12-22T00:20:54.151Z,25.80
2022-12-22T00:23:45.703Z,24.20
2022-12-22T00:26:38.429Z,25.80
2022-12-22T00:29:34.509Z,26.10
2022-12-22T00:32:32.026Z,25.60
2022-12-22T00:35:23.537Z,26.20
2022-12-22T00:38:14.592Z,25.60
2022-12-22T00:41:06.199Z,23.70
2022-12-22T00:43:58.262Z,22.40
2022-12-22T00:46:51.261Z,24.40
2022-12-22T00:49:45.397Z,23.70
2022-12-22T00:52:40.348Z,24.20
2022-12-22T00:55:37.154Z,23.90
2022-12-22T00:58:35.427Z,24.40
2022-12-22T01:01:28.420Z,25.90
2022-12-22T01:04:19.742Z,24.80
2022-12-22T01:07:10.749Z,23.80
2022-12-22T01:10:05.359Z,22.40
2022-12-22T01:12:58.499Z,24.60
2022-12-22T01:15:51.095Z,24.10
2022-12-22T01:18:42.283Z,25.80
2022-12-22T01:21:34.197Z,26.70
2022-12-22T01:24:29.914Z,25.10
2022-12-22T01:27:21.349Z,25.70
2022-12-22T01:30:12.993Z,25.30
2022-12-22T01:33:04.591Z,24.10
2022-12-22T01:35:55.896Z,22.30
2022-12-22T01:38:47.789Z,24.60
2022-12-22T01:41:41.629Z,24.50
2022-12-22T01:44:37.231Z,24.60
2022-12-22T01:47:54.908Z,24.90
2022-12-22T01:50:53.392Z,24.50
2022-12-22T01:53:48.189Z,22.80
2022-12-22T01:56:40.168Z,23.70
2022-12-22T01:59:31.236Z,22.50
2022-12-22T02:02:24.342Z,25.10
2022-12-22T02:05:19.139Z,23.60
2022-12-22T02:08:20.833Z,22.80
2022-12-22T02:11:32.849Z,22.70
2022-12-22T02:14:37.214Z,21.80
2022-12-22T02:17:37.140Z,24.20
2022-12-22T02:20:59.486Z,20.00
2022-12-22T02:24:19.785Z,22.30
2022-12-22T02:27:14.077Z,23.30
2022-12-22T02:30:10.500Z,24.40
2022-12-22T02:33:09.550Z,23.00
2022-12-22T02:36:08.838Z,21.70
2022-12-22T02:39:09.229Z,20.60
2022-12-22T02:42:08.322Z,23.10
2022-12-22T02:45:06.819Z,21.40
2022-12-22T02:48:04.749Z,22.40
2022-12-22T02:51:02.060Z,22.10
2022-12-22T02:53:53.788Z,22.90
2022-12-22T02:56:45.194Z,21.70
2022-12-22T02:59:36.836Z,20.60
2022-12-22T03:02:28.380Z,19.90
2022-12-22T03:05:19.858Z,20.60
2022-12-22T03:08:11.730Z,23.20
2022-12-22T03:11:03.373Z,23.30
2022-12-22T03:13:54.723Z,21.40
2022-12-22T03:16:46.272Z,22.40
2022-12-22T03:19:37.714Z,23.20
2022-12-22T03:22:29.544Z,23.30
2022-12-22T03:25:21.077Z,21.50
2022-12-22T03:27:54.961Z,21.00
2022-12-22T03:30:28.398Z,22.00
2022-12-22T03:33:01.890Z,21.10
2022-12-22T03:35:35.625Z,20.80
2022-12-22T03:38:09.181Z,21.30
2022-12-22T03:40:44.501Z,22.70
2022-12-22T03:43:37.401Z,21.10
2022-12-22T03:46:33.445Z,22.90
2022-12-22T03:49:14.625Z,20.70
2022-12-22T03:51:50.418Z,21.90
2022-12-22T03:54:25.888Z,21.80
2022-12-22T03:56:59.465Z,22.90
2022-12-22T03:59:33.549Z,22.20
2022-12-22T04:02:08.156Z,20.50
2022-12-22T04:04:42.103Z,20.30
2022-12-22T04:07:15.503Z,19.60
2022-12-22T04:10:02.758Z,19.00
2022-12-22T04:12:54.113Z,19.40
2022-12-22T04:15:29.790Z,19.80
2022-12-22T04:18:03.853Z,20.70
2022-12-22T04:20:37.872Z,22.20
2022-12-22T04:23:11.607Z,19.30
2022-12-22T04:25:45.527Z,21.00
2022-12-22T04:28:19.337Z,20.00
2022-12-22T04:30:54.133Z,21.10
2022-12-22T04:33:27.691Z,20.50
2022-12-22T04:36:01.345Z,20.00
2022-12-22T04:38:35.333Z,19.80
2022-12-22T04:41:09.588Z,21.50
2022-12-22T04:43:44.265Z,18.20
2022-12-22T04:46:18.261Z,20.20
2022-12-22T04:48:57.690Z,20.40
2022-12-22T04:51:33.986Z,19.60
2022-12-22T04:54:07.759Z,20.20
2022-12-22T04:56:41.410Z,20.60
2022-12-22T04:59:14.912Z,21.10
2022-12-22T05:01:49.265Z,21.70
2022-12-22T05:04:23.982Z,17.90
2022-12-22T05:06:57.785Z,19.80
2022-12-22T05:09:31.580Z,20.20
2022-12-22T05:12:25.726Z,20.40
2022-12-22T05:14:59.523Z,20.60
2022-12-22T05:17:33.290Z,18.40
2022-12-22T05:20:07.802Z,19.30
2022-12-22T05:22:41.706Z,19.80
2022-12-22T05:25:17.510Z,19.40
2022-12-22T05:27:52.768Z,18.30
2022-12-22T05:30:26.821Z,19.70
2022-12-22T05:33:00.434Z,17.90
2022-12-22T05:35:33.944Z,20.10
2022-12-22T05:38:07.455Z,20.70
2022-12-22T05:40:41.190Z,19.60
2022-12-22T05:43:14.704Z,19.70
2022-12-22T05:45:49.532Z,17.70
2022-12-22T05:48:29.492Z,19.30
2022-12-22T05:51:06.946Z,20.30
2022-12-22T05:53:40.987Z,18.50
2022-12-22T05:56:14.494Z,18.70
2022-12-22T05:58:48.148Z,19.20
2022-12-22T06:01:21.709Z,19.10
2022-12-22T06:04:00.065Z,20.10
2022-12-22T06:06:34.141Z,20.80
2022-12-22T06:09:07.973Z,19.00
2022-12-22T06:11:41.516Z,20.90
2022-12-22T06:14:15.026Z,20.10
2022-12-22T06:16:48.576Z,18.60
2022-12-22T06:19:22.661Z,20.30
2022-12-22T06:21:56.058Z,19.90
2022-12-22T06:24:29.964Z,19.40
2022-12-22T06:27:04.132Z,20.90
2022-12-22T06:29:38.148Z,22.40
2022-12-22T06:32:11.561Z,19.40
2022-12-22T06:34:45.492Z,20.00
2022-12-22T06:37:19.609Z,20.50
2022-12-22T06:39:53.388Z,16.80
2022-12-22T06:42:41.350Z,19.40
2022-12-22T06:45:15.485Z,17.30
2022-12-22T06:47:48.993Z,18.40
2022-12-22T06:50:23.049Z,18.00
2022-12-22T06:52:56.646Z,17.40
2022-12-22T06:55:30.267Z,19.00
2022-12-22T06:58:03.896Z,18.80
2022-12-22T07:00:37.648Z,18.20
2022-12-22T07:03:11.196Z,18.90
2022-12-22T07:05:45.271Z,18.80
2022-12-22T07:08:19.360Z,16.70
2022-12-22T07:11:02.250Z,19.30
2022-12-22T07:13:37.258Z,19.90
2022-12-22T07:16:12.342Z,18.90
2022-12-22T07:18:46.788Z,18.60
2022-12-22T07:21:20.837Z,17.50
2022-12-22T07:23:54.293Z,19.20
2022-12-22T07:26:28.479Z,19.10
2022-12-22T07:29:01.839Z,18.90
2022-12-22T07:31:35.936Z,18.40
2022-12-22T07:34:09.800Z,18.70
2022-12-22T07:36:43.741Z,18.50
2022-12-22T07:39:17.602Z,18.30
2022-12-22T07:42:08.649Z,19.80
2022-12-22T07:44:42.797Z,17.40
2022-12-22T07:47:16.745Z,19.30
2022-12-22T07:50:08.027Z,17.20
2022-12-22T07:52:42.227Z,17.80
2022-12-22T07:55:15.938Z,18.40
2022-12-22T07:57:49.915Z,18.10
2022-12-22T08:00:25.763Z,18.00
2022-12-22T08:03:01.507Z,18.30
2022-12-22T08:05:36.183Z,17.60
2022-12-22T08:08:10.713Z,17.40
2022-12-22T08:10:44.444Z,17.50
2022-12-22T08:13:18.602Z,17.50
2022-12-22T08:15:52.611Z,16.50
2022-12-22T08:18:26.708Z,19.30
2022-12-22T08:21:00.130Z,17.70
2022-12-22T08:23:34.244Z,18.50
2022-12-22T08:26:13.779Z,17.90
2022-12-22T08:28:51.813Z,20.30
2022-12-22T08:31:29.021Z,20.60
2022-12-22T08:34:05.058Z,23.50
2022-12-22T08:36:43.396Z,21.40
2022-12-22T08:39:18.621Z,21.40
2022-12-22T08:41:52.833Z,21.60
2022-12-22T08:44:28.246Z,20.10
2022-12-22T08:47:03.011Z,21.60
2022-12-22T08:49:36.687Z,21.90
2022-12-22T08:52:16.006Z,21.90
2022-12-22T08:54:52.219Z,18.40
2022-12-22T08:57:26.169Z,19.00
2022-12-22T09:00:00.171Z,19.40
2022-12-22T09:02:33.793Z,19.30
2022-12-22T09:05:08.920Z,20.70
2022-12-22T09:07:42.793Z,19.80
2022-12-22T09:10:17.515Z,18.10
2022-12-22T09:12:51.753Z,18.70
2022-12-22T09:15:25.374Z,17.30
2022-12-22T09:17:59.427Z,18.70
2022-12-22T09:20:33.355Z,16.20
2022-12-22T09:23:07.030Z,16.10
2022-12-22T09:25:40.936Z,16.40
2022-12-22T09:28:14.476Z,15.60
2022-12-22T09:30:53.202Z,14.60
2022-12-22T09:36:00.545Z,17.20
2022-12-22T09:38:44.049Z,17.10
2022-12-22T09:41:21.162Z,16.20
2022-12-22T09:43:55.093Z,15.50
2022-12-22T09:46:31.341Z,15.70
2022-12-22T09:49:06.719Z,17.10
2022-12-22T09:51:45.383Z,17.60
2022-12-22T09:56:51.896Z,17.10
2022-12-22T09:59:28.330Z,16.30
2022-12-22T10:02:12.784Z,16.70
2022-12-22T10:04:58.019Z,17.80
2022-12-22T10:07:35.885Z,16.90
2022-12-22T10:10:25.564Z,18.00
2022-12-22T10:13:01.863Z,17.60
2022-12-22T10:15:42.438Z,17.10
2022-12-22T10:18:17.937Z,18.10
2022-12-22T10:21:11.536Z,18.70
2022-12-22T10:23:48.492Z,17.30
2022-12-22T10:26:29.621Z,19.10
2022-12-22T10:29:08.290Z,17.10
2022-12-22T10:32:00.355Z,18.80
2022-12-22T10:34:34.187Z,18.40
2022-12-22T10:37:08.754Z,19.60
2022-12-22T10:39:59.460Z,18.80
2022-12-22T10:42:57.860Z,18.90
2022-12-22T10:45:31.846Z,18.70
2022-12-22T10:48:07.531Z,19.50
2022-12-22T10:50:50.344Z,20.00
2022-12-22T10:53:38.717Z,21.30
2022-12-22T10:56:23.510Z,18.00
2022-12-22T10:58:58.551Z,19.20
2022-12-22T11:01:37.067Z,19.50
2022-12-22T11:04:25.304Z,20.00
2022-12-22T11:07:00.452Z,19.10
2022-12-22T11:09:35.273Z,18.80
2022-12-22T11:12:15.287Z,20.70
2022-12-22T11:14:57.602Z,19.10
2022-12-22T11:17:41.049Z,18.20
2022-12-22T11:20:40.096Z,20.50
2022-12-22T11:23:22.977Z,20.80
2022-12-22T11:26:07.601Z,19.00
2022-12-22T11:29:16.574Z,18.80
2022-12-22T11:32:03.812Z,20.20
2022-12-22T11:34:51.452Z,22.40
2022-12-22T11:37:38.562Z,20.20
2022-12-22T11:40:23.370Z,21.60
2022-12-22T11:43:19.698Z,20.90
2022-12-22T11:46:08.084Z,22.80
2022-12-22T11:49:28.952Z,21.70
2022-12-22T11:52:23.340Z,23.00
2022-12-22T11:55:19.551Z,22.80
2022-12-22T11:58:06.648Z,20.60
2022-12-22T12:01:13.636Z,20.20
2022-12-22T12:04:19.095Z,20.10
2022-12-22T12:07:21.950Z,20.10
2022-12-22T12:10:15.185Z,21.60
2022-12-22T12:12:55.592Z,21.20
2022-12-22T12:15:38.400Z,20.50
2022-12-22T12:18:57.359Z,20.80
2022-12-22T12:21:37.687Z,22.00
2022-12-22T12:24:34.939Z,23.10
2022-12-22T12:27:22.105Z,22.70
2022-12-22T12:30:37.104Z,20.80
2022-12-22T12:33:02.676Z,21.30
2022-12-22T12:35:57.543Z,20.30
2022-12-22T12:41:42.437Z,19.90
2022-12-22T12:44:19.730Z,18.90
2022-12-22T12:47:09.815Z,21.50
2022-12-22T12:50:01.995Z,21.00
2022-12-22T12:53:17.514Z,20.20
2022-12-22T12:55:59.877Z,18.90
2022-12-22T12:58:58.442Z,21.10
2022-12-22T13:01:59.755Z,18.70
2022-12-22T13:05:13.395Z,17.60
2022-12-22T13:08:16.053Z,16.60
2022-12-22T13:12:01.257Z,17.80
2022-12-22T13:14:50.822Z,17.70
2022-12-22T13:17:50.159Z,18.90
2022-12-22T13:20:28.928Z,16.80
2022-12-22T13:25:50.569Z,18.20
2022-12-22T13:28:25.740Z,17.70
2022-12-22T13:31:04.544Z,19.30
2022-12-22T13:33:41.668Z,18.70
2022-12-22T13:36:21.314Z,18.70
2022-12-22T13:39:03.727Z,18.10
2022-12-22T13:41:41.311Z,17.30
2022-12-22T13:44:21.597Z,16.80
2022-12-22T13:46:55.519Z,15.60
2022-12-22T13:50:06.545Z,16.40
2022-12-22T13:52:25.345Z,18.40
2022-12-22T13:54:59.632Z,18.10
2022-12-22T13:57:33.366Z,18.20
2022-12-22T14:00:08.112Z,16.80
2022-12-22T14:02:43.423Z,19.40
2022-12-22T14:05:17.942Z,19.20
2022-12-22T14:08:08.785Z,20.90
2022-12-22T14:10:46.307Z,21.80
2022-12-22T14:13:24.111Z,19.80
2022-12-22T14:16:06.403Z,18.60
2022-12-22T14:18:42.149Z,18.20
2022-12-22T14:21:16.265Z,20.30
2022-12-22T14:23:50.703Z,19.60
2022-12-22T14:26:29.973Z,20.20
2022-12-22T14:29:04.307Z,17.40
2022-12-22T14:31:52.687Z,19.50
2022-12-22T14:34:31.810Z,17.60
2022-12-22T14:37:05.737Z,18.30
2022-12-22T14:39:39.554Z,19.00
2022-12-22T14:42:18.960Z,18.00
2022-12-22T14:44:53.654Z,19.20
2022-12-22T14:47:29.024Z,17.30
2022-12-22T14:50:15.814Z,18.40
2022-12-22T14:52:52.384Z,17.60
2022-12-22T14:55:37.468Z,18.80
2022-12-22T14:58:18.259Z,18.00
2022-12-22T15:01:13.157Z,17.90
2022-12-22T15:03:58.767Z,19.30
2022-12-22T15:06:45.046Z,19.40
2022-12-22T15:12:23.748Z,19.70
2022-12-22T15:14:57.383Z,20.20
2022-12-22T15:17:31.416Z,19.40
2022-12-22T15:20:05.133Z,20.70
2022-12-22T15:22:38.757Z,21.00
2022-12-22T15:25:19.777Z,19.00
2022-12-22T15:27:53.909Z,19.70
2022-12-22T15:30:27.748Z,20.50
2022-12-22T15:33:01.604Z,18.50
2022-12-22T15:35:36.816Z,19.70
2022-12-22T15:38:16.238Z,19.50
2022-12-22T15:40:50.292Z,18.70
2022-12-22T15:43:56.382Z,20.60
2022-12-22T15:46:19.454Z,19.60
2022-12-22T15:48:53.465Z,17.90
2022-12-22T15:51:29.615Z,20.70
2022-12-22T15:54:03.373Z,19.40
2022-12-22T15:56:37.497Z,18.00
2022-12-22T15:59:16.993Z,20.20
2022-12-22T16:01:56.582Z,21.00
2022-12-22T16:04:34.705Z,20.00
2022-12-22T16:07:08.810Z,20.30
2022-12-22T16:09:45.836Z,18.80
2022-12-22T16:12:21.241Z,18.60
2022-12-22T16:14:58.116Z,19.10
2022-12-22T16:17:33.113Z,19.20
2022-12-22T16:20:08.104Z,19.50
2022-12-22T16:22:43.258Z,18.90
2022-12-22T16:25:20.915Z,19.00
2022-12-22T16:27:56.523Z,20.10
2022-12-22T16:30:33.112Z,19.40
2022-12-22T16:33:07.110Z,23.10
2022-12-22T16:35:41.399Z,20.40
2022-12-22T16:38:18.873Z,20.20
2022-12-22T16:40:55.112Z,21.20
2022-12-22T16:46:27.556Z,22.10
2022-12-22T16:49:03.347Z,23.40
2022-12-22T16:51:39.235Z,22.50
2022-12-22T16:54:16.372Z,22.00
2022-12-22T16:56:51.989Z,22.80
2022-12-22T16:59:26.349Z,22.90
2022-12-22T17:02:01.197Z,23.30
2022-12-22T17:04:35.800Z,23.60
2022-12-22T17:07:11.332Z,24.90
2022-12-22T17:09:47.887Z,23.50
2022-12-22T17:12:25.024Z,22.80
2022-12-22T17:14:59.639Z,22.40
2022-12-22T17:17:40.103Z,22.00
2022-12-22T17:20:19.166Z,24.70
2022-12-22T17:22:55.697Z,23.70
2022-12-22T17:25:31.524Z,22.40
2022-12-22T17:28:06.002Z,22.50
2022-12-22T17:30:41.208Z,22.50
2022-12-22T17:33:18.124Z,23.20
2022-12-22T17:35:52.137Z,24.20
2022-12-22T17:38:27.575Z,24.80
2022-12-22T17:41:03.574Z,22.30
2022-12-22T17:43:37.260Z,21.70
2022-12-22T17:46:16.630Z,20.10
2022-12-22T17:48:51.365Z,21.10
2022-12-22T17:51:30.167Z,22.50
2022-12-22T17:54:04.212Z,28.00
2022-12-22T17:56:37.963Z,26.00
2022-12-22T17:59:14.555Z,29.10
2022-12-22T18:01:48.443Z,19.60
2022-12-22T18:04:22.635Z,19.80
2022-12-22T18:06:56.293Z,17.40
2022-12-22T18:09:30.425Z,18.70
2022-12-22T18:12:04.863Z,18.30
2022-12-22T18:14:38.419Z,19.80
2022-12-22T18:17:29.859Z,21.10
2022-12-22T18:20:10.376Z,19.10
2022-12-22T18:22:45.148Z,18.70
2022-12-22T18:25:26.138Z,18.90
2022-12-22T18:28:00.282Z,18.50
2022-12-22T18:30:34.477Z,19.00
2022-12-22T18:33:08.595Z,25.20
2022-12-22T18:35:44.256Z,19.50
2022-12-22T18:38:28.791Z,20.00
2022-12-22T18:41:03.478Z,18.50
2022-12-22T18:43:37.907Z,19.00
2022-12-22T18:46:14.222Z,18.60
2022-12-22T18:48:48.933Z,18.50
2022-12-22T18:51:25.638Z,18.40
2022-12-22T18:53:59.621Z,17.40
2022-12-22T18:56:36.672Z,16.60
2022-12-22T18:59:23.180Z,18.30
2022-12-22T19:02:03.713Z,18.90
2022-12-22T19:04:37.579Z,20.00
2022-12-22T19:07:17.177Z,18.10
2022-12-22T19:09:51.841Z,18.80
2022-12-22T19:12:30.350Z,21.60
2022-12-22T19:15:08.658Z,19.00
2022-12-22T19:17:43.431Z,17.20
2022-12-22T19:20:21.845Z,18.00
2022-12-22T19:25:32.046Z,16.70
2022-12-22T19:28:10.747Z,15.80
2022-12-22T19:30:45.133Z,17.10
2022-12-22T19:33:24.778Z,17.60
2022-12-22T19:36:02.066Z,18.50
2022-12-22T19:38:38.401Z,18.80
2022-12-22T19:41:36.534Z,17.50
2022-12-22T19:44:24.520Z,16.10
2022-12-22T19:46:59.702Z,17.40
2022-12-22T19:49:35.705Z,16.30
2022-12-22T19:52:11.857Z,16.50
2022-12-22T19:54:47.305Z,16.60
2022-12-22T19:57:24.456Z,16.80
2022-12-22T19:59:58.157Z,18.20
2022-12-22T20:02:35.302Z,16.00
2022-12-22T20:05:30.918Z,17.60
2022-12-22T20:08:05.873Z,15.50
2022-12-22T20:10:43.068Z,16.00
2022-12-22T20:13:22.002Z,19.00
2022-12-22T20:18:30.963Z,14.80
2022-12-22T20:21:10.366Z,15.60
2022-12-22T20:23:46.234Z,15.60
2022-12-22T20:26:25.306Z,17.10
2022-12-22T20:29:00.964Z,15.30
2022-12-22T20:31:35.130Z,14.60
2022-12-22T20:34:11.359Z,16.60
2022-12-22T20:36:46.348Z,15.30
2022-12-22T20:39:20.908Z,15.20
2022-12-22T20:41:58.429Z,14.90
2022-12-22T20:44:34.717Z,13.80
2022-12-22T20:47:12.885Z,15.90
2022-12-22T20:49:50.333Z,15.10
2022-12-22T20:52:25.147Z,15.60
2022-12-22T20:54:59.750Z,15.30
2022-12-22T20:57:33.681Z,17.30
2022-12-22T21:00:09.179Z,15.40
2022-12-22T21:02:44.213Z,16.10
2022-12-22T21:05:19.159Z,15.00
2022-12-22T21:07:52.949Z,15.90
2022-12-22T21:10:27.786Z,14.80
2022-12-22T21:13:02.420Z,14.50
2022-12-22T21:15:36.249Z,14.30
2022-12-22T21:18:17.871Z,15.70
2022-12-22T21:20:53.427Z,14.80
2022-12-22T21:23:27.067Z,14.60
2022-12-22T21:26:01.146Z,14.20
2022-12-22T21:28:38.437Z,15.30
2022-12-22T21:31:12.219Z,15.10
2022-12-22T21:33:47.472Z,15.80
2022-12-22T21:36:26.213Z,15.50
2022-12-22T21:41:51.680Z,14.50
2022-12-22T21:44:25.413Z,23.10
2022-12-22T21:47:00.197Z,16.00
2022-12-22T21:49:35.469Z,14.60
2022-12-22T21:52:09.911Z,15.00
2022-12-22T21:54:43.797Z,14.90
2022-12-22T21:57:18.784Z,14.60
2022-12-22T21:59:52.369Z,12.70
2022-12-22T22:02:26.227Z,14.80
2022-12-22T22:04:59.883Z,14.70
2022-12-22T22:07:33.977Z,13.90
2022-12-22T22:10:09.196Z,14.90
2022-12-22T22:12:42.686Z,16.20
2022-12-22T22:15:17.784Z,14.50
2022-12-22T22:17:52.049Z,14.60
2022-12-22T22:20:28.102Z,12.90
2022-12-22T22:23:02.398Z,15.00
2022-12-22T22:25:36.392Z,13.80
2022-12-22T22:28:11.276Z,15.50
2022-12-22T22:30:45.335Z,13.20
2022-12-22T22:33:19.681Z,15.90
2022-12-22T22:35:54.364Z,13.90
2022-12-22T22:38:27.891Z,13.30
2022-12-22T22:41:01.897Z,14.00
2022-12-22T22:43:35.809Z,14.20
2022-12-22T22:46:10.093Z,13.70
2022-12-22T22:48:44.253Z,14.70
2022-12-22T22:51:17.603Z,14.50
2022-12-22T22:53:51.455Z,14.00
2022-12-22T22:56:25.086Z,13.10
2022-12-22T22:59:00.029Z,14.10
2022-12-22T23:01:33.894Z,13.70
2022-12-22T23:04:08.496Z,14.00
2022-12-22T23:06:43.691Z,15.10
2022-12-22T23:09:17.333Z,13.90
2022-12-22T23:11:52.202Z,14.20
2022-12-22T23:14:26.493Z,13.60
2022-12-22T23:17:00.221Z,14.90
2022-12-22T23:19:34.289Z,14.30
2022-12-22T23:22:08.247Z,15.10
2022-12-22T23:24:42.040Z,13.10
2022-12-22T23:27:16.228Z,14.80
2022-12-22T23:29:50.033Z,13.50
2022-12-22T23:32:23.930Z,14.10
2022-12-22T23:34:57.766Z,14.30
2022-12-22T23:37:31.678Z,13.70
2022-12-22T23:43:00.202Z,13.10
2022-12-22T23:45:35.165Z,14.50
2022-12-22T23:48:10.493Z,13.30
2022-12-22T23:50:46.948Z,14.00
2022-12-22T23:53:21.538Z,13.90
2022-12-22T23:55:55.885Z,14.30
2022-12-22T23:58:29.564Z,15.10
